sensor_id;sensor_type;location;lat;lon;timestamp;pressure;altitude;pressure_sealevel;temperature;humidity
59487;BME280;45298;54.918;73.504;2022-12-18T00:00:29;102012.75;;;-19.02;77.92
59487;BME280;45298;54.918;73.504;2022-12-18T00:02:58;101990.78;;;-19.12;77.89
59487;BME280;45298;54.918;73.504;2022-12-18T00:05:28;101985.81;;;-19.21;77.86
59487;BME280;45298;54.918;73.504;2022-12-18T00:07:57;101987.59;;;-19.20;77.85
59487;BME280;45298;54.918;73.504;2022-12-18T00:10:28;102019.28;;;-19.04;77.67
59487;BME280;45298;54.918;73.504;2022-12-18T00:12:58;101937.75;;;-19.59;77.57
59487;BME280;45298;54.918;73.504;2022-12-18T00:15:37;101995.09;;;-19.30;77.44
59487;BME280;45298;54.918;73.504;2022-12-18T00:18:06;102000.47;;;-19.36;77.47
59487;BME280;45298;54.918;73.504;2022-12-18T00:20:39;102017.72;;;-19.32;77.22
59487;BME280;45298;54.918;73.504;2022-12-18T00:23:08;102027.84;;;-19.32;77.66
59487;BME280;45298;54.918;73.504;2022-12-18T00:25:37;102040.66;;;-19.39;77.41
59487;BME280;45298;54.918;73.504;2022-12-18T00:28:06;102033.81;;;-19.40;77.87
59487;BME280;45298;54.918;73.504;2022-12-18T00:30:35;102028.34;;;-19.44;77.58
59487;BME280;45298;54.918;73.504;2022-12-18T00:33:04;102026.50;;;-19.56;77.98
59487;BME280;45298;54.918;73.504;2022-12-18T00:35:33;102039.56;;;-19.51;77.33
59487;BME280;45298;54.918;73.504;2022-12-18T00:38:02;102024.44;;;-19.60;77.73
59487;BME280;45298;54.918;73.504;2022-12-18T00:40:31;102028.38;;;-19.72;77.24
59487;BME280;45298;54.918;73.504;2022-12-18T00:43:00;101992.28;;;-19.99;77.55
59487;BME280;45298;54.918;73.504;2022-12-18T00:45:30;102043.78;;;-19.69;77.33
59487;BME280;45298;54.918;73.504;2022-12-18T00:47:59;102054.66;;;-19.70;77.40
59487;BME280;45298;54.918;73.504;2022-12-18T00:50:28;102032.94;;;-19.87;77.75
59487;BME280;45298;54.918;73.504;2022-12-18T00:53:00;102058.75;;;-19.81;77.90
59487;BME280;45298;54.918;73.504;2022-12-18T00:55:29;102077.72;;;-19.76;77.84
59487;BME280;45298;54.918;73.504;2022-12-18T00:57:58;102077.88;;;-19.74;77.28
59487;BME280;45298;54.918;73.504;2022-12-18T01:00:28;102074.91;;;-19.79;77.78
59487;BME280;45298;54.918;73.504;2022-12-18T01:02:57;102060.56;;;-19.89;77.86
59487;BME280;45298;54.918;73.504;2022-12-18T01:05:26;102048.09;;;-19.87;77.79
59487;BME280;45298;54.918;73.504;2022-12-18T01:07:56;102072.25;;;-19.81;77.75
59487;BME280;45298;54.918;73.504;2022-12-18T01:10:25;102066.91;;;-19.84;77.45
59487;BME280;45298;54.918;73.504;2022-12-18T01:12:57;102054.50;;;-19.91;77.21
59487;BME280;45298;54.918;73.504;2022-12-18T01:15:26;102064.72;;;-19.89;77.47
59487;BME280;45298;54.918;73.504;2022-12-18T01:17:55;102078.66;;;-19.84;77.19
59487;BME280;45298;54.918;73.504;2022-12-18T01:20:26;101980.69;;;-20.43;77.13
59487;BME280;45298;54.918;73.504;2022-12-18T01:22:55;102085.97;;;-19.87;77.43
59487;BME280;45298;54.918;73.504;2022-12-18T01:25:24;102052.31;;;-20.05;77.84
59487;BME280;45298;54.918;73.504;2022-12-18T01:27:53;102064.03;;;-19.97;77.75
59487;BME280;45298;54.918;73.504;2022-12-18T01:30:24;102065.06;;;-19.95;77.77
59487;BME280;45298;54.918;73.504;2022-12-18T01:32:53;102057.19;;;-19.98;77.79
59487;BME280;45298;54.918;73.504;2022-12-18T01:35:22;102051.22;;;-19.99;77.86
59487;BME280;45298;54.918;73.504;2022-12-18T01:37:56;102090.97;;;-19.79;77.76
59487;BME280;45298;54.918;73.504;2022-12-18T01:40:26;102064.25;;;-19.85;78.40
59487;BME280;45298;54.918;73.504;2022-12-18T01:42:55;101838.94;;;-21.12;78.10
59487;BME280;45298;54.918;73.504;2022-12-18T01:45:29;102070.88;;;-19.77;78.34
59487;BME280;45298;54.918;73.504;2022-12-18T01:48:05;102072.34;;;-19.70;78.01
59487;BME280;45298;54.918;73.504;2022-12-18T01:50:38;102107.66;;;-19.53;77.83
59487;BME280;45298;54.918;73.504;2022-12-18T01:53:19;102098.47;;;-19.61;78.02
59487;BME280;45298;54.918;73.504;2022-12-18T01:55:53;102052.22;;;-19.88;77.66
59487;BME280;45298;54.918;73.504;2022-12-18T01:58:54;102110.06;;;-19.63;77.60
59487;BME280;45298;54.918;73.504;2022-12-18T02:01:25;102076.75;;;-19.87;77.38
59487;BME280;45298;54.918;73.504;2022-12-18T02:03:55;102113.06;;;-19.67;77.40
59487;BME280;45298;54.918;73.504;2022-12-18T02:06:34;102090.53;;;-19.83;77.30
59487;BME280;45298;54.918;73.504;2022-12-18T02:09:14;102090.88;;;-19.89;77.72
59487;BME280;45298;54.918;73.504;2022-12-18T02:11:59;102123.66;;;-19.71;77.48
59487;BME280;45298;54.918;73.504;2022-12-18T02:14:38;102119.50;;;-19.80;77.91
59487;BME280;45298;54.918;73.504;2022-12-18T02:17:18;102134.63;;;-19.71;78.06
59487;BME280;45298;54.918;73.504;2022-12-18T02:22:47;102130.00;;;-19.66;77.87
59487;BME280;45298;54.918;73.504;2022-12-18T02:28:13;102108.63;;;-19.70;78.32
59487;BME280;45298;54.918;73.504;2022-12-18T02:30:49;102138.56;;;-19.55;78.43
59487;BME280;45298;54.918;73.504;2022-12-18T02:33:20;102121.97;;;-19.62;78.54
59487;BME280;45298;54.918;73.504;2022-12-18T02:35:51;102134.72;;;-19.52;78.12
59487;BME280;45298;54.918;73.504;2022-12-18T02:38:23;102133.50;;;-19.47;77.92
59487;BME280;45298;54.918;73.504;2022-12-18T02:41:00;102133.19;;;-19.50;77.76
59487;BME280;45298;54.918;73.504;2022-12-18T02:43:31;102111.28;;;-19.68;77.70
59487;BME280;45298;54.918;73.504;2022-12-18T02:46:27;102130.31;;;-19.72;77.47
59487;BME280;45298;54.918;73.504;2022-12-18T02:49:06;102136.53;;;-19.68;77.45
59487;BME280;45298;54.918;73.504;2022-12-18T02:51:48;102139.56;;;-19.72;77.80
59487;BME280;45298;54.918;73.504;2022-12-18T02:54:21;102172.22;;;-19.65;77.47
59487;BME280;45298;54.918;73.504;2022-12-18T02:56:54;102162.56;;;-19.69;77.61
59487;BME280;45298;54.918;73.504;2022-12-18T02:59:41;102157.41;;;-19.80;77.60
59487;BME280;45298;54.918;73.504;2022-12-18T03:02:35;102176.25;;;-19.76;77.63
59487;BME280;45298;54.918;73.504;2022-12-18T03:05:15;102186.22;;;-19.78;77.56
59487;BME280;45298;54.918;73.504;2022-12-18T03:07:53;102156.56;;;-19.98;77.81
59487;BME280;45298;54.918;73.504;2022-12-18T03:10:30;102187.41;;;-19.83;77.97
59487;BME280;45298;54.918;73.504;2022-12-18T03:13:27;102183.69;;;-19.78;77.32
59487;BME280;45298;54.918;73.504;2022-12-18T03:16:00;102192.75;;;-19.80;77.27
59487;BME280;45298;54.918;73.504;2022-12-18T03:18:51;102132.97;;;-20.07;77.39
59487;BME280;45298;54.918;73.504;2022-12-18T03:21:26;102179.72;;;-19.84;77.72
59487;BME280;45298;54.918;73.504;2022-12-18T03:23:58;102157.03;;;-20.02;77.97
59487;BME280;45298;54.918;73.504;2022-12-18T03:26:27;102158.06;;;-20.00;77.62
59487;BME280;45298;54.918;73.504;2022-12-18T03:29:05;102174.41;;;-19.87;78.02
59487;BME280;45298;54.918;73.504;2022-12-18T03:31:40;102204.78;;;-19.68;77.63
59487;BME280;45298;54.918;73.504;2022-12-18T03:34:19;102178.06;;;-19.84;77.45
59487;BME280;45298;54.918;73.504;2022-12-18T03:36:50;102182.38;;;-19.83;77.44
59487;BME280;45298;54.918;73.504;2022-12-18T03:39:19;102208.78;;;-19.70;77.81
59487;BME280;45298;54.918;73.504;2022-12-18T03:45:00;102208.94;;;-19.60;77.63
59487;BME280;45298;54.918;73.504;2022-12-18T03:53:25;102186.19;;;-19.69;77.14
59487;BME280;45298;54.918;73.504;2022-12-18T03:55:59;102193.00;;;-19.59;77.32
59487;BME280;45298;54.918;73.504;2022-12-18T03:58:35;102195.84;;;-19.56;77.63
59487;BME280;45298;54.918;73.504;2022-12-18T04:01:33;102185.72;;;-19.56;77.39
59487;BME280;45298;54.918;73.504;2022-12-18T04:04:04;102184.06;;;-19.55;77.14
59487;BME280;45298;54.918;73.504;2022-12-18T04:06:38;102194.59;;;-19.51;76.90
59487;BME280;45298;54.918;73.504;2022-12-18T04:09:09;102192.38;;;-19.48;77.08
59487;BME280;45298;54.918;73.504;2022-12-18T04:11:42;102173.09;;;-19.56;77.28
59487;BME280;45298;54.918;73.504;2022-12-18T04:14:14;102215.06;;;-19.30;77.11
59487;BME280;45298;54.918;73.504;2022-12-18T04:16:49;102235.13;;;-19.23;77.21
59487;BME280;45298;54.918;73.504;2022-12-18T04:19:22;102194.75;;;-19.40;77.13
59487;BME280;45298;54.918;73.504;2022-12-18T04:21:52;102214.91;;;-19.23;77.31
59487;BME280;45298;54.918;73.504;2022-12-18T04:24:22;102206.84;;;-19.19;77.59
59487;BME280;45298;54.918;73.504;2022-12-18T04:27:06;102233.22;;;-18.97;77.33
59487;BME280;45298;54.918;73.504;2022-12-18T04:29:42;102134.97;;;-19.49;77.17
59487;BME280;45298;54.918;73.504;2022-12-18T04:32:10;102238.50;;;-18.86;76.76
59487;BME280;45298;54.918;73.504;2022-12-18T04:34:41;102200.50;;;-18.96;77.00
59487;BME280;45298;54.918;73.504;2022-12-18T04:37:10;102221.50;;;-18.78;76.86
59487;BME280;45298;54.918;73.504;2022-12-18T04:39:39;102131.03;;;-19.27;77.06
59487;BME280;45298;54.918;73.504;2022-12-18T04:42:17;102231.78;;;-18.57;77.15
59487;BME280;45298;54.918;73.504;2022-12-18T04:44:45;102148.63;;;-18.91;76.65
59487;BME280;45298;54.918;73.504;2022-12-18T04:47:14;102237.19;;;-18.35;77.07
59487;BME280;45298;54.918;73.504;2022-12-18T04:49:43;102229.81;;;-18.32;76.88
59487;BME280;45298;54.918;73.504;2022-12-18T04:52:12;102238.25;;;-18.22;77.17
59487;BME280;45298;54.918;73.504;2022-12-18T04:54:40;102240.72;;;-18.14;76.98
59487;BME280;45298;54.918;73.504;2022-12-18T04:57:09;102241.00;;;-18.11;76.55
59487;BME280;45298;54.918;73.504;2022-12-18T04:59:38;102248.31;;;-17.95;76.63
59487;BME280;45298;54.918;73.504;2022-12-18T05:02:07;102251.25;;;-17.90;76.79
59487;BME280;45298;54.918;73.504;2022-12-18T05:04:35;102251.09;;;-17.91;77.47
59487;BME280;45298;54.918;73.504;2022-12-18T05:07:05;102250.50;;;-17.89;76.95
59487;BME280;45298;54.918;73.504;2022-12-18T05:09:34;102249.22;;;-17.84;77.21
59487;BME280;45298;54.918;73.504;2022-12-18T05:12:03;102252.31;;;-17.78;77.47
59487;BME280;45298;54.918;73.504;2022-12-18T05:14:31;102248.16;;;-17.77;77.18
59487;BME280;45298;54.918;73.504;2022-12-18T05:17:00;102239.03;;;-17.75;76.69
59487;BME280;45298;54.918;73.504;2022-12-18T05:19:29;102250.63;;;-17.58;76.96
59487;BME280;45298;54.918;73.504;2022-12-18T05:21:58;102268.22;;;-17.40;77.18
59487;BME280;45298;54.918;73.504;2022-12-18T05:24:27;102258.47;;;-17.36;77.51
59487;BME280;45298;54.918;73.504;2022-12-18T05:26:56;102245.53;;;-17.39;77.17
59487;BME280;45298;54.918;73.504;2022-12-18T05:29:25;102268.16;;;-17.21;77.23
59487;BME280;45298;54.918;73.504;2022-12-18T05:31:53;102278.81;;;-17.15;77.31
59487;BME280;45298;54.918;73.504;2022-12-18T05:34:22;102272.88;;;-17.15;76.62
59487;BME280;45298;54.918;73.504;2022-12-18T05:36:51;102237.41;;;-17.35;76.81
59487;BME280;45298;54.918;73.504;2022-12-18T05:39:20;102252.13;;;-17.30;77.06
59487;BME280;45298;54.918;73.504;2022-12-18T05:41:49;102252.41;;;-17.27;77.51
59487;BME280;45298;54.918;73.504;2022-12-18T05:44:18;102250.63;;;-17.28;76.66
59487;BME280;45298;54.918;73.504;2022-12-18T05:46:47;102253.31;;;-17.27;77.48
59487;BME280;45298;54.918;73.504;2022-12-18T05:49:16;102271.22;;;-17.15;76.90
59487;BME280;45298;54.918;73.504;2022-12-18T05:51:45;102228.91;;;-17.35;77.76
59487;BME280;45298;54.918;73.504;2022-12-18T05:54:14;102274.94;;;-17.11;76.48
59487;BME280;45298;54.918;73.504;2022-12-18T05:56:43;102268.59;;;-17.06;77.74
59487;BME280;45298;54.918;73.504;2022-12-18T05:59:15;102233.78;;;-17.18;77.61
59487;BME280;45298;54.918;73.504;2022-12-18T06:01:44;102250.69;;;-17.08;77.11
59487;BME280;45298;54.918;73.504;2022-12-18T06:04:14;102285.50;;;-16.86;77.25
59487;BME280;45298;54.918;73.504;2022-12-18T06:06:43;102172.56;;;-17.52;77.16
59487;BME280;45298;54.918;73.504;2022-12-18T06:09:12;102268.69;;;-16.94;77.53
59487;BME280;45298;54.918;73.504;2022-12-18T06:11:41;102263.63;;;-16.94;77.30
59487;BME280;45298;54.918;73.504;2022-12-18T06:14:09;102290.84;;;-16.73;77.62
59487;BME280;45298;54.918;73.504;2022-12-18T06:16:38;102265.56;;;-16.81;77.24
59487;BME280;45298;54.918;73.504;2022-12-18T06:19:07;102301.53;;;-16.56;78.24
59487;BME280;45298;54.918;73.504;2022-12-18T06:21:36;102234.72;;;-16.86;77.88
59487;BME280;45298;54.918;73.504;2022-12-18T06:24:06;102260.41;;;-16.62;77.74
59487;BME280;45298;54.918;73.504;2022-12-18T06:26:39;102268.16;;;-16.50;77.98
59487;BME280;45298;54.918;73.504;2022-12-18T06:29:08;102197.66;;;-16.84;78.07
59487;BME280;45298;54.918;73.504;2022-12-18T06:31:37;102289.38;;;-16.19;77.32
59487;BME280;45298;54.918;73.504;2022-12-18T06:34:06;102287.84;;;-16.06;78.29
59487;BME280;45298;54.918;73.504;2022-12-18T06:36:35;102285.41;;;-16.05;78.17
59487;BME280;45298;54.918;73.504;2022-12-18T06:39:05;102257.22;;;-16.18;76.49
59487;BME280;45298;54.918;73.504;2022-12-18T06:41:36;102255.44;;;-16.19;77.73
59487;BME280;45298;54.918;73.504;2022-12-18T06:44:05;102279.44;;;-16.05;77.68
59487;BME280;45298;54.918;73.504;2022-12-18T06:46:35;102234.47;;;-16.27;77.10
59487;BME280;45298;54.918;73.504;2022-12-18T06:49:04;102241.69;;;-16.21;77.17
59487;BME280;45298;54.918;73.504;2022-12-18T06:51:33;102180.16;;;-16.60;77.29
59487;BME280;45298;54.918;73.504;2022-12-18T06:54:02;102236.16;;;-16.28;78.14
59487;BME280;45298;54.918;73.504;2022-12-18T06:56:31;102275.84;;;-15.97;78.25
59487;BME280;45298;54.918;73.504;2022-12-18T06:59:00;102279.56;;;-15.93;78.28
59487;BME280;45298;54.918;73.504;2022-12-18T07:01:29;102265.56;;;-15.99;77.14
59487;BME280;45298;54.918;73.504;2022-12-18T07:03:59;102274.59;;;-15.92;77.20
59487;BME280;45298;54.918;73.504;2022-12-18T07:06:27;102277.13;;;-15.92;77.09
59487;BME280;45298;54.918;73.504;2022-12-18T07:08:56;102244.38;;;-16.09;77.59
59487;BME280;45298;54.918;73.504;2022-12-18T07:11:25;102263.03;;;-15.99;78.01
59487;BME280;45298;54.918;73.504;2022-12-18T07:13:53;102276.69;;;-15.76;77.98
59487;BME280;45298;54.918;73.504;2022-12-18T07:16:22;102246.63;;;-15.92;78.42
59487;BME280;45298;54.918;73.504;2022-12-18T07:18:54;102271.97;;;-15.71;77.32
59487;BME280;45298;54.918;73.504;2022-12-18T07:21:24;102273.22;;;-15.66;78.15
59487;BME280;45298;54.918;73.504;2022-12-18T07:23:53;102301.06;;;-15.57;78.00
59487;BME280;45298;54.918;73.504;2022-12-18T07:26:22;102198.97;;;-16.05;78.31
59487;BME280;45298;54.918;73.504;2022-12-18T07:28:55;102261.78;;;-15.61;78.67
59487;BME280;45298;54.918;73.504;2022-12-18T07:31:24;102301.88;;;-15.36;77.70
59487;BME280;45298;54.918;73.504;2022-12-18T07:33:56;102278.50;;;-15.42;78.72
59487;BME280;45298;54.918;73.504;2022-12-18T07:36:25;102293.06;;;-15.29;78.43
59487;BME280;45298;54.918;73.504;2022-12-18T07:38:54;102271.72;;;-15.31;78.59
59487;BME280;45298;54.918;73.504;2022-12-18T07:41:23;102245.66;;;-15.39;78.04
59487;BME280;45298;54.918;73.504;2022-12-18T07:43:52;102257.06;;;-15.24;78.12
59487;BME280;45298;54.918;73.504;2022-12-18T07:46:20;102293.47;;;-15.02;78.00
59487;BME280;45298;54.918;73.504;2022-12-18T07:48:49;102217.13;;;-15.35;78.28
59487;BME280;45298;54.918;73.504;2022-12-18T07:51:18;102236.38;;;-15.16;78.01
59487;BME280;45298;54.918;73.504;2022-12-18T07:53:49;102262.69;;;-15.06;78.09
59487;BME280;45298;54.918;73.504;2022-12-18T07:56:20;102227.38;;;-15.23;78.39
59487;BME280;45298;54.918;73.504;2022-12-18T07:58:58;102274.72;;;-14.93;78.08
59487;BME280;45298;54.918;73.504;2022-12-18T08:01:28;102270.03;;;-14.98;78.36
59487;BME280;45298;54.918;73.504;2022-12-18T08:03:57;102204.13;;;-15.28;78.65
59487;BME280;45298;54.918;73.504;2022-12-18T08:06:26;102235.19;;;-15.10;78.16
59487;BME280;45298;54.918;73.504;2022-12-18T08:08:56;102164.63;;;-15.45;78.24
59487;BME280;45298;54.918;73.504;2022-12-18T08:11:26;102244.91;;;-14.94;78.21
59487;BME280;45298;54.918;73.504;2022-12-18T08:13:56;102217.22;;;-15.01;78.06
59487;BME280;45298;54.918;73.504;2022-12-18T08:16:25;102214.13;;;-14.97;78.18
59487;BME280;45298;54.918;73.504;2022-12-18T08:18:54;102220.34;;;-14.93;79.14
59487;BME280;45298;54.918;73.504;2022-12-18T08:21:25;102218.00;;;-14.90;78.93
59487;BME280;45298;54.918;73.504;2022-12-18T08:23:56;102256.50;;;-14.75;78.64
59487;BME280;45298;54.918;73.504;2022-12-18T08:26:27;102257.97;;;-14.67;78.31
59487;BME280;45298;54.918;73.504;2022-12-18T08:28:59;102239.88;;;-14.82;78.94
59487;BME280;45298;54.918;73.504;2022-12-18T08:31:29;102268.41;;;-14.64;78.36
59487;BME280;45298;54.918;73.504;2022-12-18T08:33:58;102243.31;;;-14.81;78.92
59487;BME280;45298;54.918;73.504;2022-12-18T08:36:26;102252.56;;;-14.71;78.58
59487;BME280;45298;54.918;73.504;2022-12-18T08:38:56;102239.09;;;-14.81;78.62
59487;BME280;45298;54.918;73.504;2022-12-18T08:41:25;102168.97;;;-15.22;79.44
59487;BME280;45298;54.918;73.504;2022-12-18T08:43:55;102260.06;;;-14.73;79.21
59487;BME280;45298;54.918;73.504;2022-12-18T08:46:43;102252.19;;;-14.76;79.07
59487;BME280;45298;54.918;73.504;2022-12-18T08:49:12;102275.03;;;-14.66;79.31
59487;BME280;45298;54.918;73.504;2022-12-18T08:51:41;102273.25;;;-14.67;78.93
59487;BME280;45298;54.918;73.504;2022-12-18T08:54:13;102244.72;;;-14.85;78.68
59487;BME280;45298;54.918;73.504;2022-12-18T08:56:42;102230.41;;;-14.95;78.41
59487;BME280;45298;54.918;73.504;2022-12-18T08:59:11;102163.69;;;-15.35;79.12
59487;BME280;45298;54.918;73.504;2022-12-18T09:01:49;102240.34;;;-14.98;79.15
59487;BME280;45298;54.918;73.504;2022-12-18T09:04:19;102244.44;;;-15.00;79.29
59487;BME280;45298;54.918;73.504;2022-12-18T09:06:48;102241.44;;;-15.06;78.74
59487;BME280;45298;54.918;73.504;2022-12-18T09:09:17;102249.06;;;-15.06;78.47
59487;BME280;45298;54.918;73.504;2022-12-18T09:11:46;102289.97;;;-14.93;78.98
59487;BME280;45298;54.918;73.504;2022-12-18T09:14:15;102249.59;;;-15.10;79.48
59487;BME280;45298;54.918;73.504;2022-12-18T09:16:44;102289.13;;;-14.93;79.32
59487;BME280;45298;54.918;73.504;2022-12-18T09:19:13;102259.53;;;-15.13;79.17
59487;BME280;45298;54.918;73.504;2022-12-18T09:21:42;102263.38;;;-15.19;78.85
59487;BME280;45298;54.918;73.504;2022-12-18T09:24:15;102261.38;;;-15.23;79.96
59487;BME280;45298;54.918;73.504;2022-12-18T09:26:44;102289.59;;;-15.20;78.87
59487;BME280;45298;54.918;73.504;2022-12-18T09:29:15;102262.47;;;-15.41;79.48
59487;BME280;45298;54.918;73.504;2022-12-18T09:31:45;102300.34;;;-15.34;79.55
59487;BME280;45298;54.918;73.504;2022-12-18T09:34:15;102272.31;;;-15.56;79.44
59487;BME280;45298;54.918;73.504;2022-12-18T09:36:49;102312.34;;;-15.43;79.94
59487;BME280;45298;54.918;73.504;2022-12-18T09:39:18;102265.34;;;-15.69;78.79
59487;BME280;45298;54.918;73.504;2022-12-18T09:41:57;102287.59;;;-15.67;79.28
59487;BME280;45298;54.918;73.504;2022-12-18T09:44:33;102257.44;;;-15.94;78.71
59487;BME280;45298;54.918;73.504;2022-12-18T09:47:22;102286.25;;;-15.84;79.23
59487;BME280;45298;54.918;73.504;2022-12-18T09:49:58;102341.66;;;-15.69;79.11
59487;BME280;45298;54.918;73.504;2022-12-18T09:52:45;102336.31;;;-15.72;79.71
59487;BME280;45298;54.918;73.504;2022-12-18T09:55:42;102325.00;;;-15.76;80.10
59487;BME280;45298;54.918;73.504;2022-12-18T09:58:30;102306.13;;;-15.90;79.03
59487;BME280;45298;54.918;73.504;2022-12-18T10:01:00;102307.78;;;-15.90;79.81
59487;BME280;45298;54.918;73.504;2022-12-18T10:03:29;102301.56;;;-16.04;79.76
59487;BME280;45298;54.918;73.504;2022-12-18T10:06:13;102283.00;;;-16.14;79.00
59487;BME280;45298;54.918;73.504;2022-12-18T10:09:31;102322.91;;;-16.02;79.22
59487;BME280;45298;54.918;73.504;2022-12-18T10:12:28;102317.44;;;-16.17;79.10
59487;BME280;45298;54.918;73.504;2022-12-18T10:15:10;102305.09;;;-16.33;79.49
59487;BME280;45298;54.918;73.504;2022-12-18T10:20:47;102270.28;;;-16.65;79.89
59487;BME280;45298;54.918;73.504;2022-12-18T10:23:26;102318.31;;;-16.48;79.83
59487;BME280;45298;54.918;73.504;2022-12-18T10:26:07;102330.91;;;-16.49;80.25
59487;BME280;45298;54.918;73.504;2022-12-18T10:28:38;102320.22;;;-16.56;79.00
59487;BME280;45298;54.918;73.504;2022-12-18T10:31:17;102305.19;;;-16.73;79.13
59487;BME280;45298;54.918;73.504;2022-12-18T10:33:46;102325.03;;;-16.69;79.63
59487;BME280;45298;54.918;73.504;2022-12-18T10:36:15;102285.50;;;-16.96;79.76
59487;BME280;45298;54.918;73.504;2022-12-18T10:38:44;102313.16;;;-16.89;79.67
59487;BME280;45298;54.918;73.504;2022-12-18T10:44:19;102339.78;;;-16.94;80.06
59487;BME280;45298;54.918;73.504;2022-12-18T10:46:54;102347.03;;;-16.99;79.78
59487;BME280;45298;54.918;73.504;2022-12-18T10:49:28;102324.59;;;-17.24;79.32
59487;BME280;45298;54.918;73.504;2022-12-18T10:54:35;102373.50;;;-17.16;79.93
59487;BME280;45298;54.918;73.504;2022-12-18T10:57:16;102365.06;;;-17.25;80.07
59487;BME280;45298;54.918;73.504;2022-12-18T10:59:56;102371.38;;;-17.30;79.99
59487;BME280;45298;54.918;73.504;2022-12-18T11:02:35;102372.47;;;-17.37;80.23
59487;BME280;45298;54.918;73.504;2022-12-18T11:05:36;102376.88;;;-17.45;80.13
59487;BME280;45298;54.918;73.504;2022-12-18T11:08:11;102319.59;;;-17.81;79.32
59487;BME280;45298;54.918;73.504;2022-12-18T11:10:48;102322.81;;;-17.73;80.25
59487;BME280;45298;54.918;73.504;2022-12-18T11:13:25;102355.22;;;-17.60;80.10
59487;BME280;45298;54.918;73.504;2022-12-18T11:15:55;102338.34;;;-17.60;79.91
59487;BME280;45298;54.918;73.504;2022-12-18T11:18:33;102356.38;;;-17.57;79.44
59487;BME280;45298;54.918;73.504;2022-12-18T11:21:11;102366.53;;;-17.57;79.50
59487;BME280;45298;54.918;73.504;2022-12-18T11:26:15;102299.16;;;-17.83;80.03
59487;BME280;45298;54.918;73.504;2022-12-18T11:28:51;102319.13;;;-17.77;79.91
59487;BME280;45298;54.918;73.504;2022-12-18T11:31:28;102320.91;;;-17.76;79.72
59487;BME280;45298;54.918;73.504;2022-12-18T11:34:01;102344.84;;;-17.53;79.39
59487;BME280;45298;54.918;73.504;2022-12-18T11:36:55;102325.84;;;-17.58;79.38
59487;BME280;45298;54.918;73.504;2022-12-18T11:42:18;102357.25;;;-17.37;78.95
59487;BME280;45298;54.918;73.504;2022-12-18T11:44:58;102355.28;;;-17.31;79.88
59487;BME280;45298;54.918;73.504;2022-12-18T11:47:40;102336.34;;;-17.35;78.87
59487;BME280;45298;54.918;73.504;2022-12-18T11:50:18;102315.25;;;-17.44;79.51
59487;BME280;45298;54.918;73.504;2022-12-18T11:52:47;102257.28;;;-17.69;79.02
59487;BME280;45298;54.918;73.504;2022-12-18T11:55:39;102321.94;;;-17.25;78.30
59487;BME280;45298;54.918;73.504;2022-12-18T12:01:10;102245.38;;;-17.70;78.58
59487;BME280;45298;54.918;73.504;2022-12-18T12:04:00;102354.34;;;-17.12;78.90
59487;BME280;45298;54.918;73.504;2022-12-18T12:10:18;102338.38;;;-17.01;78.49
59487;BME280;45298;54.918;73.504;2022-12-18T12:15:42;102357.00;;;-16.71;78.86
59487;BME280;45298;54.918;73.504;2022-12-18T12:21:03;102348.91;;;-16.57;79.84
59487;BME280;45298;54.918;73.504;2022-12-18T12:30:00;102335.47;;;-16.35;78.67
59487;BME280;45298;54.918;73.504;2022-12-18T12:38:48;102290.25;;;-16.39;78.73
59487;BME280;45298;54.918;73.504;2022-12-18T12:41:23;102287.47;;;-16.32;78.05
59487;BME280;45298;54.918;73.504;2022-12-18T12:44:18;102251.50;;;-16.57;78.45
59487;BME280;45298;54.918;73.504;2022-12-18T12:46:50;102249.72;;;-16.58;78.24
59487;BME280;45298;54.918;73.504;2022-12-18T12:49:23;102300.53;;;-16.27;77.94
59487;BME280;45298;54.918;73.504;2022-12-18T12:52:28;102323.56;;;-16.15;78.31
59487;BME280;45298;54.918;73.504;2022-12-18T12:54:59;102337.63;;;-16.29;78.93
59487;BME280;45298;54.918;73.504;2022-12-18T12:57:40;102323.28;;;-16.18;79.20
59487;BME280;45298;54.918;73.504;2022-12-18T13:00:15;102323.91;;;-16.31;78.76
59487;BME280;45298;54.918;73.504;2022-12-18T13:02:52;102326.06;;;-16.26;78.05
59487;BME280;45298;54.918;73.504;2022-12-18T13:05:44;102300.03;;;-16.44;78.94
59487;BME280;45298;54.918;73.504;2022-12-18T13:08:31;102295.19;;;-16.51;79.10
59487;BME280;45298;54.918;73.504;2022-12-18T13:11:02;102287.84;;;-16.58;78.39
59487;BME280;45298;54.918;73.504;2022-12-18T13:13:53;102287.69;;;-16.60;79.32
59487;BME280;45298;54.918;73.504;2022-12-18T13:16:24;102294.44;;;-16.50;79.04
59487;BME280;45298;54.918;73.504;2022-12-18T13:18:55;102306.00;;;-16.33;78.27
59487;BME280;45298;54.918;73.504;2022-12-18T13:21:31;102298.66;;;-16.30;79.09
59487;BME280;45298;54.918;73.504;2022-12-18T13:24:27;102262.06;;;-16.52;78.45
59487;BME280;45298;54.918;73.504;2022-12-18T13:26:58;102255.03;;;-16.55;79.05
59487;BME280;45298;54.918;73.504;2022-12-18T13:29:56;102298.13;;;-16.26;77.94
59487;BME280;45298;54.918;73.504;2022-12-18T13:32:25;102284.94;;;-16.32;78.79
59487;BME280;45298;54.918;73.504;2022-12-18T13:37:53;102257.22;;;-16.39;79.21
59487;BME280;45298;54.918;73.504;2022-12-18T13:46:05;102285.28;;;-16.17;79.14
59487;BME280;45298;54.918;73.504;2022-12-18T13:48:38;102255.31;;;-16.31;78.54
59487;BME280;45298;54.918;73.504;2022-12-18T13:51:10;102269.91;;;-16.18;78.75
59487;BME280;45298;54.918;73.504;2022-12-18T13:53:46;102238.44;;;-16.31;79.37
59487;BME280;45298;54.918;73.504;2022-12-18T13:56:21;102154.72;;;-16.71;78.36
59487;BME280;45298;54.918;73.504;2022-12-18T13:59:10;102287.19;;;-16.04;78.45
59487;BME280;45298;54.918;73.504;2022-12-18T14:01:55;102174.91;;;-16.62;78.61
59487;BME280;45298;54.918;73.504;2022-12-18T14:04:34;102295.22;;;-15.99;79.50